Time;durP1;ratioP1;P1;durP2;ratioP2;P2;SDS_P1;SDS_P2;PMS_P1;PMS_P2;Temp;Humidity;BMP_temperature;BMP_pressure;BME280_temperature;BME280_humidity;BME280_pressure;Samples;Min_cycle;Max_cycle;Signal;HPM_P1;HPM_P2
2024/04/08 00:00:22;;;;;;;6.35;3.50;;;;;;;10.45;73.82;100098.28;4904061;29;20107;-93
2024/04/08 00:02:50;;;;;;;7.35;3.50;;;;;;;10.44;73.93;100104.75;4888475;29;20044;-94
2024/04/08 00:05:19;;;;;;;5.60;3.58;;;;;;;10.28;74.40;100095.63;4906418;29;20111;-93
2024/04/08 00:07:45;;;;;;;8.00;3.40;;;;;;;10.17;74.35;100082.28;4921475;29;20028;-93
2024/04/08 00:10:11;;;;;;;5.50;3.08;;;;;;;10.23;74.29;100079.44;4904593;29;20408;-93
2024/04/08 00:12:40;;;;;;;4.63;2.85;;;;;;;10.33;74.50;100102.97;4921376;29;20427;-92
2024/04/08 00:15:08;;;;;;;5.03;3.20;;;;;;;10.13;74.82;100076.59;4905570;29;20398;-93
2024/04/08 00:17:33;;;;;;;7.85;3.50;;;;;;;10.21;74.95;100091.47;4905226;29;20032;-92
2024/04/08 00:19:59;;;;;;;5.07;3.35;;;;;;;10.30;74.75;100100.81;4904384;29;20032;-93
2024/04/08 00:22:25;;;;;;;4.90;3.75;;;;;;;10.19;74.79;100093.59;4903219;29;20024;-94
2024/04/08 00:24:54;;;;;;;6.93;4.25;;;;;;;9.92;74.52;100070.09;4903628;29;20028;-92
2024/04/08 00:27:19;;;;;;;9.13;4.07;;;;;;;10.06;74.29;100089.38;4903915;29;20021;-94
2024/04/08 00:29:45;;;;;;;6.93;4.15;;;;;;;9.90;74.89;100077.59;4903998;29;20086;-93
2024/04/08 00:32:11;;;;;;;8.02;4.15;;;;;;;9.93;74.88;100089.75;4888471;29;20537;-93
2024/04/08 00:34:37;;;;;;;6.97;3.80;;;;;;;9.86;74.77;100077.28;4905017;29;20028;-93
2024/04/08 00:37:02;;;;;;;6.13;3.80;;;;;;;9.94;75.29;100097.56;4905100;29;20032;-92
2024/04/08 00:39:28;;;;;;;5.28;3.50;;;;;;;9.81;75.27;100076.38;4904704;29;20032;-92
2024/04/08 00:41:53;;;;;;;6.10;3.85;;;;;;;9.93;75.43;100098.63;4905417;29;20035;-93
2024/04/08 00:44:22;;;;;;;5.07;3.20;;;;;;;9.90;75.24;100083.81;4904836;29;20021;-94
2024/04/08 00:46:48;;;;;;;5.22;3.25;;;;;;;9.89;75.69;100086.72;4904365;29;20044;-93
2024/04/08 00:49:14;;;;;;;5.43;3.70;;;;;;;9.83;75.91;100085.81;4904244;29;20399;-92
2024/04/08 00:51:41;;;;;;;5.72;4.10;;;;;;;9.78;75.71;100085.75;4904809;29;20175;-93
2024/04/08 00:54:06;;;;;;;6.25;3.60;;;;;;;9.82;75.46;100094.16;4887618;29;20032;-91
2024/04/08 00:56:32;;;;;;;5.55;3.67;;;;;;;9.84;75.74;100094.72;4903370;29;20021;-93
2024/04/08 00:58:58;;;;;;;7.18;3.95;;;;;;;9.74;75.35;100081.94;4919864;29;20035;-93
2024/04/08 01:01:23;;;;;;;6.43;3.95;;;;;;;9.78;75.60;100096.53;4903157;29;20093;-92
2024/04/08 01:03:52;;;;;;;6.78;4.10;;;;;;;9.69;75.58;100084.53;4906449;29;20024;-94
2024/04/08 01:06:18;;;;;;;9.35;4.45;;;;;;;9.55;75.87;100083.25;4923279;29;20027;-92
2024/04/08 01:08:44;;;;;;;9.50;6.25;;;;;;;9.44;75.74;100069.63;4938826;29;20027;-93
2024/04/08 01:11:12;;;;;;;9.05;6.10;;;;;;;9.50;76.06;100087.47;4896349;29;20092;-94
2024/04/08 01:13:38;;;;;;;14.05;6.65;;;;;;;9.38;75.74;100067.91;4871638;29;20043;-92
2024/04/08 01:16:04;;;;;;;12.98;7.55;;;;;;;9.31;76.65;100075.31;4872170;29;20032;-92
2024/04/08 01:18:30;;;;;;;16.35;7.15;;;;;;;9.28;76.81;100073.94;4872834;29;20028;-92
2024/04/08 01:20:55;;;;;;;14.80;8.35;;;;;;;9.34;76.34;100085.59;4872642;29;20043;-91
2024/04/08 01:23:21;;;;;;;16.05;8.77;;;;;;;9.28;76.45;100075.81;4872805;29;20032;-93
2024/04/08 01:25:46;;;;;;;13.98;7.57;;;;;;;9.05;77.19;100082.94;4873337;29;20087;-93
2024/04/08 01:28:13;;;;;;;10.82;6.45;;;;;;;9.14;76.79;100083.34;4873253;29;20028;-93
2024/04/08 01:30:39;;;;;;;12.25;6.63;;;;;;;9.14;76.98;100091.41;4873073;29;20105;-92
2024/04/08 01:33:04;;;;;;;11.90;6.68;;;;;;;9.11;76.94;100091.91;4887255;29;20099;-93
2024/04/08 01:35:30;;;;;;;12.35;6.78;;;;;;;9.05;77.18;100077.56;4888165;29;20031;-92
2024/04/08 01:37:56;;;;;;;13.23;6.60;;;;;;;9.03;77.18;100076.97;4872919;29;20058;-94
2024/04/08 01:40:21;;;;;;;9.50;6.05;;;;;;;9.08;76.79;100068.19;4872246;29;20048;-93
2024/04/08 01:42:47;;;;;;;10.07;6.07;;;;;;;9.14;77.01;100083.34;4872517;29;20459;-93
2024/04/08 01:45:12;;;;;;;11.15;6.45;;;;;;;9.04;77.39;100067.84;4885365;29;20039;-93
2024/04/08 01:47:38;;;;;;;10.60;5.22;;;;;;;9.17;77.09;100106.22;4920980;29;20040;-92
2024/04/08 01:50:04;;;;;;;10.60;6.13;;;;;;;9.22;77.12;100115.22;4904684;29;20035;-92
2024/04/08 01:52:29;;;;;;;12.57;6.30;;;;;;;9.09;77.74;100105.56;4871689;29;20031;-92
2024/04/08 01:54:55;;;;;;;14.55;7.82;;;;;;;9.09;77.72;100099.41;4871821;29;20028;-92
2024/04/08 01:57:21;;;;;;;7.68;5.78;;;;;;;9.14;77.29;100101.34;4886366;29;20052;-92
2024/04/08 01:59:49;;;;;;;9.38;5.72;;;;;;;9.17;77.64;100107.06;4886484;29;20035;-92
2024/04/08 02:02:15;;;;;;;10.02;5.78;;;;;;;9.06;77.90;100100.66;4872965;29;20095;-93
2024/04/08 02:04:40;;;;;;;8.93;4.85;;;;;;;9.15;77.12;100119.09;4886608;29;20048;-93
2024/04/08 02:07:06;;;;;;;8.75;4.60;;;;;;;8.96;76.94;100111.22;4872229;29;20023;-94
2024/04/08 02:09:31;;;;;;;5.85;4.55;;;;;;;8.85;77.26;100101.34;4872554;29;20068;-93
2024/04/08 02:11:57;;;;;;;11.35;4.78;;;;;;;8.98;76.73;100132.47;4870903;29;20031;-92
2024/04/08 02:14:23;;;;;;;9.93;5.22;;;;;;;8.77;77.65;100118.63;4872032;29;20116;-92
2024/04/08 02:16:49;;;;;;;8.65;4.60;;;;;;;8.77;77.65;100128.56;4871435;29;20028;-92
2024/04/08 02:19:14;;;;;;;8.07;4.50;;;;;;;8.79;77.76;100131.84;4887916;29;20088;-93
2024/04/08 02:21:40;;;;;;;6.55;4.25;;;;;;;8.68;77.64;100128.13;4871905;29;20123;-91
2024/04/08 02:24:06;;;;;;;11.38;4.45;;;;;;;8.66;77.84;100127.56;4870752;29;20028;-90
2024/04/08 02:26:32;;;;;;;10.30;4.63;;;;;;;8.56;78.61;100119.28;4870230;29;20123;-91
2024/04/08 02:28:58;;;;;;;8.25;4.80;;;;;;;8.54;78.56;100127.56;4871229;29;20490;-94
2024/04/08 02:31:23;;;;;;;7.32;4.38;;;;;;;8.64;78.62;100133.16;4871123;29;20024;-91
2024/04/08 02:33:49;;;;;;;9.30;4.88;;;;;;;8.43;78.21;100121.16;4871366;29;20080;-93
2024/04/08 02:36:14;;;;;;;7.40;4.40;;;;;;;8.49;77.81;100124.78;4886920;29;20063;-92
2024/04/08 02:38:40;;;;;;;9.82;4.63;;;;;;;8.47;77.60;100127.69;4888754;29;20200;-92
2024/04/08 02:41:06;;;;;;;6.72;4.57;;;;;;;8.43;77.97;100131.09;4871260;29;20024;-94
2024/04/08 02:43:35;;;;;;;9.73;4.20;;;;;;;8.50;78.45;100139.81;4870580;29;20060;-93
2024/04/08 02:46:02;;;;;;;6.55;4.32;;;;;;;8.47;78.30;100143.00;4887532;29;20047;-93
2024/04/08 02:48:28;;;;;;;7.63;4.30;;;;;;;8.54;78.70;100145.53;4872939;29;20052;-93
2024/04/08 02:50:53;;;;;;;11.18;4.60;;;;;;;8.54;78.34;100141.00;4882398;29;20102;-92
2024/04/08 02:53:19;;;;;;;7.45;4.43;;;;;;;8.52;78.50;100159.19;4912266;29;20090;-92
2024/04/08 02:55:45;;;;;;;6.40;4.53;;;;;;;8.41;78.44;100149.31;4925023;29;20050;-94
2024/04/08 02:58:11;;;;;;;12.50;5.03;;;;;;;8.52;78.33;100150.34;4941325;29;20433;-93
2024/04/08 03:00:38;;;;;;;7.00;4.65;;;;;;;8.44;78.86;100157.69;4940634;29;20049;-93
2024/04/08 03:03:04;;;;;;;10.65;4.55;;;;;;;8.44;78.51;100163.03;4923511;29;20039;-94
2024/04/08 03:05:29;;;;;;;7.60;4.95;;;;;;;8.26;78.36;100145.19;4923594;29;20186;-93
2024/04/08 03:07:55;;;;;;;8.00;4.25;;;;;;;8.23;78.87;100140.28;4924452;29;20027;-94
2024/04/08 03:10:22;;;;;;;6.95;4.32;;;;;;;8.36;78.89;100166.06;4939061;29;20042;-94
2024/04/08 03:12:48;;;;;;;10.15;4.55;;;;;;;8.16;78.58;100128.06;4941406;29;20051;-93
2024/04/08 03:15:13;;;;;;;11.30;4.80;;;;;;;8.20;78.65;100159.53;4924170;29;20578;-92
2024/04/08 03:17:40;;;;;;;11.48;5.15;;;;;;;8.28;78.29;100147.66;4939511;29;20031;-93
2024/04/08 03:20:08;;;;;;;10.45;6.22;;;;;;;8.29;78.60;100162.69;4923866;29;20031;-93
2024/04/08 03:22:34;;;;;;;15.55;6.80;;;;;;;8.30;78.24;100151.72;4923905;29;20038;-94
2024/04/08 03:25:00;;;;;;;8.20;5.07;;;;;;;8.30;78.09;100150.91;4924659;29;20031;-93
2024/04/08 03:27:25;;;;;;;8.75;4.85;;;;;;;8.21;78.02;100147.75;4923909;29;20023;-94
2024/04/08 03:29:51;;;;;;;10.45;4.95;;;;;;;8.35;77.44;100160.94;4923815;29;20058;-94
2024/04/08 03:32:17;;;;;;;10.48;5.32;;;;;;;8.35;77.57;100163.63;4925356;29;20513;-91
2024/04/08 03:34:43;;;;;;;8.10;5.18;;;;;;;8.29;77.79;100166.19;4939520;29;20023;-92
2024/04/08 03:37:09;;;;;;;9.10;4.65;;;;;;;8.10;77.89;100138.66;4924758;29;20042;-93
2024/04/08 03:39:35;;;;;;;9.23;4.35;;;;;;;8.16;77.93;100168.28;4926751;29;20126;-92
2024/04/08 03:42:00;;;;;;;19.42;5.15;;;;;;;8.16;77.50;100161.06;4926480;29;20506;-91
2024/04/08 03:44:26;;;;;;;8.52;4.47;;;;;;;8.14;77.31;100171.19;4944043;29;20111;-92
2024/04/08 03:46:59;;;;;;;9.25;4.90;;;;;;;8.16;77.81;100170.97;4927929;29;20046;-95
2024/04/08 03:49:33;;;;;;;8.02;4.55;;;;;;;8.05;78.14;100165.38;4957201;29;20043;-96
2024/04/08 03:52:16;;;;;;;7.03;4.60;;;;;;;7.96;77.88;100157.88;4930767;28;20083;-95
2024/04/08 03:54:44;;;;;;;7.18;4.78;;;;;;;7.96;78.18;100179.34;4969029;29;20042;-95
2024/04/08 03:57:12;;;;;;;6.85;4.28;;;;;;;7.98;77.68;100190.66;4953077;29;20095;-95
2024/04/08 03:59:45;;;;;;;10.68;4.70;;;;;;;7.98;77.96;100199.50;4969580;29;20062;-94
2024/04/08 04:02:14;;;;;;;12.82;5.57;;;;;;;7.83;77.92;100186.53;4940103;29;20054;-94
2024/04/08 04:07:37;;;;;;;9.43;4.32;;;;;;;7.78;78.16;100181.06;4948749;29;20047;-95
2024/04/08 04:10:10;;;;;;;;;;;;;;;8.05;77.96;100221.69;4953480;29;20140;-95
2024/04/08 04:12:39;;;;;;;11.18;6.93;;;;;;;7.88;78.14;100196.56;4933412;29;19910;-95
2024/04/08 04:15:13;;;;;;;7.28;4.30;;;;;;;7.86;78.50;100190.63;4940400;29;20040;-96
2024/04/08 04:17:40;;;;;;;9.70;4.65;;;;;;;8.07;78.06;100199.97;4915406;29;20035;-96
2024/04/08 04:20:21;;;;;;;9.95;5.35;;;;;;;7.98;77.69;100201.38;4919937;29;20036;-96
2024/04/08 04:22:46;;;;;;;15.48;5.90;;;;;;;7.98;77.90;100201.38;4913779;29;20067;-94
2024/04/08 04:25:15;;;;;;;22.52;4.82;;;;;;;7.98;77.69;100202.19;4893329;29;20046;-93
2024/04/08 04:27:41;;;;;;;11.70;5.85;;;;;;;7.84;78.18;100193.56;4893232;29;20031;-92
2024/04/08 04:30:07;;;;;;;8.18;4.57;;;;;;;7.95;78.60;100224.13;4878120;29;20044;-93
2024/04/08 04:32:33;;;;;;;16.23;5.30;;;;;;;7.96;78.78;100222.25;4890197;29;20036;-93
2024/04/08 04:34:58;;;;;;;8.10;4.75;;;;;;;7.99;78.25;100219.09;4886901;29;20044;-92
2024/04/08 04:37:24;;;;;;;25.52;14.40;;;;;;;7.94;78.86;100218.97;4873839;29;20051;-94
2024/04/08 04:39:50;;;;;;;14.30;9.30;;;;;;;8.07;78.15;100216.06;4882879;29;20064;-93
2024/04/08 04:42:18;;;;;;;13.07;6.15;;;;;;;8.12;78.91;100226.13;4917054;29;20045;-93
2024/04/08 04:47:30;;;;;;;12.02;5.10;;;;;;;8.21;77.22;100196.03;4922580;29;20106;-91
2024/04/08 04:50:27;;;;;;;13.45;5.13;;;;;;;8.36;77.32;100214.34;4926323;29;20118;-94
2024/04/08 04:52:55;;;;;;;16.35;6.50;;;;;;;8.31;77.19;100198.16;4928078;29;20032;-92
2024/04/08 04:55:21;;;;;;;16.38;6.40;;;;;;;8.22;77.50;100205.72;4913296;29;20039;-93
2024/04/08 04:57:47;;;;;;;15.48;7.18;;;;;;;8.30;77.28;100199.22;4911676;29;20027;-94
2024/04/08 05:00:17;;;;;;;13.38;6.50;;;;;;;8.50;76.90;100220.34;4925610;29;20091;-94
2024/04/08 05:02:43;;;;;;;17.65;7.22;;;;;;;8.65;75.85;100199.22;4926670;29;20524;-93
2024/04/08 05:05:20;;;;;;;13.65;6.95;;;;;;;8.63;76.13;100195.97;4912531;29;20027;-96
2024/04/08 05:07:46;;;;;;;10.95;5.72;;;;;;;9.00;75.58;100238.63;4927051;29;20047;-94
2024/04/08 05:10:12;;;;;;;11.43;5.82;;;;;;;8.90;75.41;100214.22;4909378;29;20098;-94
2024/04/08 05:12:37;;;;;;;12.05;5.55;;;;;;;8.92;75.29;100201.38;4908445;29;20035;-94
2024/04/08 05:15:03;;;;;;;9.80;5.90;;;;;;;9.01;75.68;100220.66;4893545;29;20550;-94
2024/04/08 05:17:29;;;;;;;11.70;5.85;;;;;;;9.03;75.65;100207.81;4910408;29;20498;-94
2024/04/08 05:20:01;;;;;;;11.90;6.53;;;;;;;9.22;75.68;100228.06;4910283;29;20111;-94
2024/04/08 05:22:33;;;;;;;11.18;6.35;;;;;;;9.45;75.19;100221.78;4912114;29;20028;-93
2024/04/08 05:24:59;;;;;;;20.58;7.13;;;;;;;9.61;74.07;100222.09;4909758;29;20038;-92
2024/04/08 05:27:27;;;;;;;8.05;4.95;;;;;;;9.63;73.75;100204.66;4893818;29;20031;-94
2024/04/08 05:29:55;;;;;;;16.95;8.23;;;;;;;9.80;73.29;100225.38;4912371;29;20166;-95
2024/04/08 05:32:25;;;;;;;6.30;4.32;;;;;;;9.86;73.27;100213.66;4913987;29;20098;-95
2024/04/08 05:34:51;;;;;;;7.78;4.05;;;;;;;9.90;72.39;100214.81;4909720;29;20035;-95
2024/04/08 05:37:19;;;;;;;8.20;3.95;;;;;;;9.96;72.33;100221.06;4928348;29;20039;-95
2024/04/08 05:39:48;;;;;;;12.80;6.35;;;;;;;9.93;72.93;100222.38;4912521;29;20042;-94
2024/04/08 05:42:24;;;;;;;7.70;5.53;;;;;;;10.00;72.94;100223.03;4941810;29;20047;-93
2024/04/08 05:44:59;;;;;;;;;;;;;;;;;;;;;
2024/04/08 05:47:31;;;;;;;9.57;4.53;;;;;;;10.10;72.46;100209.72;4924170;29;20487;-92
2024/04/08 05:50:07;;;;;;;7.30;4.32;;;;;;;10.30;71.84;100214.66;4916730;29;20086;-95
2024/04/08 05:52:52;;;;;;;10.55;4.38;;;;;;;10.72;71.25;100245.69;4922201;29;20035;-95
2024/04/08 05:58:38;;;;;;;12.25;4.57;;;;;;;10.81;69.85;100227.22;4944357;29;20028;-94
2024/04/08 06:01:20;;;;;;;8.45;4.40;;;;;;;11.00;69.43;100217.78;4923190;29;20046;-96
2024/04/08 06:03:45;;;;;;;11.63;6.10;;;;;;;11.17;69.12;100219.63;4928362;29;20043;-93
2024/04/08 06:11:17;;;;;;;19.05;8.40;;;;;;;11.42;69.03;100241.47;4886136;29;20044;-93
2024/04/08 06:13:17;;;;;;;18.85;8.00;;;;;;;11.47;68.36;100232.63;4877861;29;20033;-91
2024/04/08 06:15:43;;;;;;;14.18;6.93;;;;;;;11.58;68.54;100239.78;4835915;29;20139;-92
2024/04/08 06:18:36;;;;;;;21.08;10.45;;;;;;;11.63;69.01;100229.00;4908014;29;20039;-92
2024/04/08 06:21:05;;;;;;;23.52;9.50;;;;;;;11.89;67.51;100219.31;4938849;29;20040;-90
2024/04/08 06:23:31;;;;;;;17.17;9.10;;;;;;;12.05;67.29;100228.34;4918100;29;20028;-87
2024/04/08 06:26:00;;;;;;;19.08;9.73;;;;;;;12.24;66.99;100238.75;4922738;29;20442;-91
2024/04/08 06:28:28;;;;;;;25.42;11.93;;;;;;;12.17;66.75;100233.59;4903722;29;20024;-93
2024/04/08 06:34:16;;;;;;;18.50;10.25;;;;;;;12.47;65.87;100232.19;4926047;28;20054;-93
2024/04/08 06:36:44;;;;;;;15.18;10.70;;;;;;;12.50;65.90;100235.19;4906673;29;20028;-91
2024/04/08 06:42:38;;;;;;;22.60;11.23;;;;;;;12.74;65.40;100229.38;4938438;29;20042;-94
2024/04/08 06:45:04;;;;;;;23.05;10.80;;;;;;;12.99;65.53;100236.84;4925656;29;20035;-92
2024/04/08 06:48:05;;;;;;;20.48;11.27;;;;;;;13.33;64.22;100248.06;4920608;29;20044;-90
2024/04/08 06:50:30;;;;;;;23.58;10.65;;;;;;;13.38;64.12;100239.16;4925348;29;20036;-93
2024/04/08 06:52:59;;;;;;;28.48;11.25;;;;;;;13.50;63.52;100236.22;4923411;29;20042;-91
2024/04/08 06:55:28;;;;;;;24.73;14.10;;;;;;;13.70;63.29;100238.19;4907899;29;20067;-94
2024/04/08 06:58:08;;;;;;;;;;;;;;;;;;;;;
2024/04/08 07:04:04;;;;;;;26.08;11.10;;;;;;;14.01;62.42;100224.66;4881871;29;20039;-92
2024/04/08 07:10:38;;;;;;;;;;;;;;;;;;;;;
2024/04/08 07:30:03;;;;;;;16.45;6.90;;;;;;;15.42;61.56;100237.41;4786552;30;20050;-93
2024/04/08 07:33:05;;;;;;;8.95;6.30;;;;;;;15.35;60.75;100223.31;5129691;23;20052;-96
2024/04/08 07:35:41;;;;;;;10.98;5.90;;;;;;;15.44;60.37;100218.09;4868347;29;20078;-95
2024/04/08 07:38:07;;;;;;;19.20;12.52;;;;;;;15.39;60.36;100207.28;4856081;29;20049;-89
2024/04/08 07:43:59;;;;;;;10.13;4.72;;;;;;;15.69;60.07;100236.16;4874399;29;20064;-91
2024/04/08 07:49:21;;;;;;;6.03;4.00;;;;;;;15.87;59.40;100223.84;5736874;23;20055;-90
2024/04/08 07:55:44;;;;;;;7.95;4.03;;;;;;;16.11;59.25;100226.66;4872314;29;20057;-91
2024/04/08 07:58:13;;;;;;;9.52;3.85;;;;;;;16.15;58.88;100214.13;4839616;29;20041;-92
2024/04/08 08:01:37;;;;;;;;;;;;;;;;;;;;;
2024/04/08 08:12:33;;;;;;;;;;;;;;;;;;;;;
2024/04/08 08:15:15;;;;;;;;;;;;;;;;;;;;;
2024/04/08 08:17:49;;;;;;;4.88;2.65;;;;;;;17.25;54.75;100235.31;4715116;30;20059;-96
2024/04/08 08:24:03;;;;;;;;;;;;;;;;;;;;;
2024/04/08 08:26:32;;;;;;;11.70;4.72;;;;;;;17.38;53.20;100216.31;4791560;29;20203;-93
2024/04/08 08:42:38;;;;;;;6.63;2.92;;;;;;;17.77;52.59;100195.34;4780150;29;20074;-94
2024/04/08 08:45:30;;;;;;;9.18;4.07;;;;;;;17.98;51.88;100207.56;4927963;29;20054;-95
2024/04/08 08:54:04;;;;;;;5.95;2.88;;;;;;;17.87;50.36;100197.94;4883591;29;20132;-92
2024/04/08 08:56:36;;;;;;;3.72;2.42;;;;;;;18.06;50.87;100216.19;4868456;29;20097;-96
2024/04/08 08:59:06;;;;;;;5.18;2.67;;;;;;;17.78;51.09;100202.41;4868780;29;20041;-92
2024/04/08 09:02:13;;;;;;;4.97;3.17;;;;;;;17.75;51.09;100178.50;4871046;29;20420;-94
2024/04/08 09:04:59;;;;;;;4.85;2.60;;;;;;;17.94;50.46;100189.38;4883752;29;20040;-93
2024/04/08 09:10:52;;;;;;;4.00;1.90;;;;;;;18.18;49.89;100202.91;4868125;29;20047;-94
2024/04/08 09:13:37;;;;;;;4.75;2.22;;;;;;;18.24;49.58;100193.53;4853779;29;20049;-94
2024/04/08 09:16:09;;;;;;;10.73;7.35;;;;;;;18.31;49.19;100191.22;4852142;29;20033;-93
2024/04/08 09:18:35;;;;;;;3.33;1.77;;;;;;;18.29;48.38;100166.16;4855556;29;20038;-94
2024/04/08 09:24:32;;;;;;;14.80;7.90;;;;;;;18.55;47.85;100190.22;4901594;29;20123;-96
2024/04/08 09:27:26;;;;;;;7.15;3.25;;;;;;;18.20;46.02;100178.88;4876153;29;20025;-94
2024/04/08 09:33:24;;;;;;;4.68;2.60;;;;;;;18.61;45.41;100172.66;4922900;29;20574;-95
2024/04/08 09:42:58;;;;;;;2.38;1.17;;;;;;;18.76;41.06;100163.38;4874491;29;20040;-92
2024/04/08 09:45:32;;;;;;;2.30;1.17;;;;;;;18.75;41.48;100156.28;4869019;29;20032;-93
2024/04/08 09:48:21;;;;;;;3.03;0.90;;;;;;;18.84;40.75;100176.31;4900248;29;20040;-92
2024/04/08 09:50:46;;;;;;;1.80;1.00;;;;;;;18.72;39.87;100160.44;4896970;29;20190;-92
2024/04/08 09:53:20;;;;;;;1.80;1.00;;;;;;;18.85;39.10;100158.03;4908842;29;20051;-94
2024/04/08 09:56:09;;;;;;;16.33;11.05;;;;;;;18.80;38.40;100158.13;4895404;29;20548;-94
2024/04/08 09:58:52;;;;;;;2.58;1.30;;;;;;;18.91;37.60;100165.81;4911344;29;20028;-91
2024/04/08 10:01:22;;;;;;;1.85;1.20;;;;;;;18.81;32.84;100160.56;4925788;29;20027;-95
2024/04/08 10:03:51;;;;;;;2.50;1.17;;;;;;;18.81;32.39;100149.66;4910598;29;20465;-94
2024/04/08 10:06:18;;;;;;;4.53;1.40;;;;;;;18.92;34.91;100147.50;4914245;28;20037;-92
2024/04/08 10:13:30;;;;;;;1.85;1.20;;;;;;;19.20;33.54;100142.03;4840561;29;20049;-96
2024/04/08 10:17:03;;;;;;;;;;;;;;;;;;;;;
2024/04/08 10:20:02;;;;;;;;;;;;;;;;;;;;;
2024/04/08 10:23:14;;;;;;;;;;;;;;;;;;;;;
2024/04/08 10:32:35;;;;;;;2.35;1.05;;;;;;;19.45;32.55;100105.94;4820844;29;20064;-96
2024/04/08 10:35:07;;;;;;;2.83;0.82;;;;;;;19.58;32.47;100118.69;4886127;29;20047;-96
2024/04/08 10:38:09;;;;;;;;;;;;;;;;;;;;;
2024/04/08 10:40:45;;;;;;;;;;;;;;;;;;;;;
2024/04/08 10:46:21;;;;;;;5.78;4.35;;;;;;;19.61;33.44;100089.16;5265099;23;20057;-96
2024/04/08 10:49:11;;;;;;;;;;;;;;;;;;;;;
2024/04/08 10:51:50;;;;;;;2.83;1.50;;;;;;;19.78;33.29;100094.78;4887821;29;20071;-94
2024/04/08 10:54:19;;;;;;;1.20;0.73;;;;;;;19.75;32.98;100074.31;4861425;29;20492;-95
2024/04/08 10:57:16;;;;;;;2.90;1.30;;;;;;;19.91;33.14;100077.47;4857274;29;20070;-96
2024/04/08 10:59:45;;;;;;;2.78;1.00;;;;;;;20.01;33.93;100067.41;4891646;29;20063;-91
2024/04/08 11:02:42;;;;;;;1.10;0.60;;;;;;;19.85;33.21;100056.06;4863157;29;20025;-93
2024/04/08 11:08:40;;;;;;;1.60;0.80;;;;;;;19.98;32.51;100055.97;4898528;29;20035;-95
2024/04/08 11:11:06;;;;;;;1.60;0.75;;;;;;;20.01;31.75;100053.75;4856149;29;20309;-94
2024/04/08 11:13:35;;;;;;;4.75;1.23;;;;;;;20.05;33.64;100061.00;4886118;29;20037;-95
2024/04/08 11:16:06;;;;;;;1.80;1.20;;;;;;;20.16;33.29;100056.03;5203160;23;20051;-93
2024/04/08 11:18:37;;;;;;;2.38;1.55;;;;;;;20.26;33.44;100047.56;4877011;29;20042;-94
2024/04/08 11:28:31;;;;;;;2.33;0.90;;;;;;;20.46;32.45;100053.56;4830368;29;20098;-93
2024/04/08 11:31:05;;;;;;;3.03;0.80;;;;;;;20.34;31.19;100021.38;4803508;29;20500;-93
2024/04/08 11:36:55;;;;;;;1.03;0.80;;;;;;;20.39;32.47;100027.47;4858275;29;20044;-94
2024/04/08 11:39:48;;;;;;;2.65;1.30;;;;;;;20.39;32.25;100032.94;4834729;29;20068;-96
2024/04/08 11:42:14;;;;;;;4.20;1.05;;;;;;;20.30;32.26;100007.50;4901041;29;20095;-95
2024/04/08 11:48:58;;;;;;;5.82;1.23;;;;;;;20.64;31.77;100014.19;4940052;29;20054;-95
2024/04/08 11:51:24;;;;;;;1.30;1.10;;;;;;;20.53;32.82;99985.50;4910347;29;20036;-94
2024/04/08 11:53:52;;;;;;;7.25;1.60;;;;;;;20.50;32.61;99972.47;4876223;29;20115;-94
2024/04/08 11:56:31;;;;;;;;;;;;;;;;;;;;;
2024/04/08 11:59:07;;;;;;;1.20;0.80;;;;;;;20.71;31.53;99975.41;4905553;29;20111;-95
2024/04/08 12:02:03;;;;;;;0.90;0.63;;;;;;;20.67;31.20;99961.56;4884730;29;20028;-96
2024/04/08 12:23:33;;;;;;;8.05;1.50;;;;;;;20.70;31.61;99946.44;4845863;29;20042;-96
2024/04/08 12:26:04;;;;;;;3.17;1.17;;;;;;;20.68;31.55;99937.75;4839614;29;20565;-95
2024/04/08 12:28:35;;;;;;;5.07;1.73;;;;;;;20.91;31.62;99957.53;4884324;29;20032;-94
2024/04/08 12:31:03;;;;;;;2.55;1.85;;;;;;;21.00;31.67;99952.88;4863777;29;20040;-93
2024/04/08 12:33:32;;;;;;;2.03;1.40;;;;;;;20.95;31.98;99929.19;4897069;29;20411;-96
2024/04/08 12:35:58;;;;;;;2.08;1.08;;;;;;;21.18;31.06;99951.69;4891338;29;20044;-94
2024/04/08 12:38:44;;;;;;;3.17;1.33;;;;;;;21.26;29.27;99938.31;4878790;29;20040;-94
2024/04/08 12:41:10;;;;;;;5.25;1.27;;;;;;;21.25;30.13;99928.47;4873474;29;20040;-91
2024/04/08 12:43:36;;;;;;;1.10;0.80;;;;;;;21.25;30.73;99936.69;4898219;29;20047;-94
2024/04/08 12:46:22;;;;;;;2.70;0.70;;;;;;;21.15;30.18;99930.44;4879021;29;20111;-95
2024/04/08 12:48:48;;;;;;;4.28;0.88;;;;;;;21.21;30.17;99928.34;4931286;29;20075;-93
2024/04/08 12:51:16;;;;;;;2.65;1.45;;;;;;;21.19;30.80;99936.06;4889160;29;20036;-94
2024/04/08 12:53:44;;;;;;;2.17;1.50;;;;;;;21.25;31.05;99940.25;4921491;29;20032;-95
2024/04/08 13:04:23;;;;;;;1.90;0.80;;;;;;;21.36;30.12;99949.72;5551342;23;20048;-96
2024/04/08 13:09:53;;;;;;;0.70;0.60;;;;;;;21.25;29.52;99903.81;4851881;29;20073;-96
2024/04/08 13:12:29;;;;;;;1.45;0.60;;;;;;;21.30;29.02;99929.09;4878356;29;20515;-95
2024/04/08 13:15:13;;;;;;;;;;;;;;;;;;;;;
2024/04/08 13:17:43;;;;;;;0.95;0.73;;;;;;;21.29;29.56;99897.38;4859789;29;20539;-95
2024/04/08 13:20:09;;;;;;;1.23;0.80;;;;;;;21.40;29.69;99911.53;4926126;29;20036;-94
2024/04/08 13:22:40;;;;;;;8.55;2.85;;;;;;;21.32;29.21;99898.66;4891605;29;20028;-95
2024/04/08 13:25:22;;;;;;;2.13;1.10;;;;;;;21.51;29.41;99917.47;4878067;29;20035;-95
2024/04/08 13:28:00;;;;;;;;;;;;;;;;;;;;;
2024/04/08 13:30:32;;;;;;;2.65;1.20;;;;;;;21.61;29.21;99900.66;4900969;29;20123;-92
2024/04/08 13:33:00;;;;;;;0.95;0.70;;;;;;;21.76;29.09;99913.00;4912864;29;20034;-95
2024/04/08 13:35:39;;;;;;;2.67;0.95;;;;;;;21.86;28.66;99912.63;4895661;29;20032;-94
2024/04/08 13:38:07;;;;;;;6.45;2.30;;;;;;;21.89;29.05;99892.75;5063291;23;20118;-95
2024/04/08 13:54:33;;;;;;;1.45;0.73;;;;;;;22.31;27.66;99887.38;4925776;29;20110;-95
2024/04/08 13:57:04;;;;;;;2.10;1.08;;;;;;;22.38;27.18;99895.06;4883477;29;20036;-94
2024/04/08 13:59:30;;;;;;;2.50;0.90;;;;;;;22.30;27.27;99883.00;4893241;29;20052;-95
2024/04/08 14:05:40;;;;;;;1.42;0.65;;;;;;;22.27;26.44;99871.91;5454361;25;1764954;-93
2024/04/08 14:08:09;;;;;;;3.63;2.10;;;;;;;22.34;26.96;99872.16;5424931;26;19999;-95
2024/04/08 14:10:38;;;;;;;1.70;1.10;;;;;;;22.26;26.82;99853.84;5382782;26;20071;-93
2024/04/08 14:13:04;;;;;;;3.13;1.50;;;;;;;22.37;26.39;99861.34;5419594;26;20017;-95
2024/04/08 14:15:29;;;;;;;4.43;2.28;;;;;;;22.47;26.48;99853.81;5388852;26;19995;-95
2024/04/08 14:18:18;;;;;;;7.78;2.53;;;;;;;22.80;26.20;99871.09;5392743;26;19990;-91
2024/04/08 14:24:32;;;;;;;1.97;1.37;;;;;;;23.24;24.71;99850.63;5297699;27;20009;-92
2024/04/08 14:27:01;;;;;;;2.60;0.95;;;;;;;23.31;24.90;99845.38;5214118;27;20261;-91
2024/04/08 14:29:30;;;;;;;3.35;0.90;;;;;;;23.39;24.08;99847.22;5379322;26;19994;-92
2024/04/08 14:32:13;;;;;;;10.20;2.50;;;;;;;23.45;23.46;99837.59;5389495;26;20014;-92
2024/04/08 14:34:50;;;;;;;3.22;0.90;;;;;;;23.34;23.17;99847.44;5419075;26;20068;-94
2024/04/08 14:37:19;;;;;;;3.38;1.35;;;;;;;23.48;23.43;99838.84;5388179;26;20010;-94
2024/04/08 14:40:12;;;;;;;2.10;1.08;;;;;;;23.76;22.57;99852.69;5386926;26;20421;-92
2024/04/08 14:42:50;;;;;;;2.72;1.20;;;;;;;23.92;22.30;99833.56;5414715;26;20006;-96
2024/04/08 14:45:21;;;;;;;1.65;1.00;;;;;;;24.28;21.51;99849.19;5387565;26;20002;-96
2024/04/08 14:47:54;;;;;;;3.67;1.17;;;;;;;24.25;22.27;99827.06;5418406;26;20422;-95
2024/04/08 14:50:25;;;;;;;4.18;1.00;;;;;;;24.55;22.57;99831.09;5389391;26;20081;-96
2024/04/08 14:53:25;;;;;;;2.05;0.80;;;;;;;24.85;21.41;99847.22;5390936;26;19995;-95
2024/04/08 14:55:54;;;;;;;3.17;1.23;;;;;;;24.84;21.04;99831.03;5418097;26;20019;-94
2024/04/08 14:58:19;;;;;;;3.45;1.30;;;;;;;24.95;21.09;99830.19;5391280;26;20031;-95
2024/04/08 15:00:48;;;;;;;1.52;0.90;;;;;;;25.36;20.71;99824.53;5387483;26;19999;-96
2024/04/08 15:03:23;;;;;;;1.65;0.80;;;;;;;25.63;21.15;99830.25;5387182;26;20517;-95
2024/04/08 15:05:58;;;;;;;1.55;0.60;;;;;;;25.26;21.14;99831.38;5404444;26;19998;-94
2024/04/08 15:08:35;;;;;;;1.38;0.70;;;;;;;24.83;21.15;99827.50;5402353;26;20006;-95
2024/04/08 15:11:10;;;;;;;4.55;1.02;;;;;;;24.39;22.09;99814.50;5411040;26;20000;-95
2024/04/08 15:13:48;;;;;;;21.45;9.90;;;;;;;24.11;22.42;99830.19;5395128;26;20028;-93
2024/04/08 15:16:14;;;;;;;4.00;1.30;;;;;;;23.63;22.19;99812.59;5405782;26;20003;-95